航空気象通報

ウインドサーファーのための航空気象通報による風予報です。

4/8-9の航空気象通報(国内、海外)

2008年04月08日 23時14分47秒 | TAF
羽田空港
TAF RJTT 080852Z 081812 35023KT 9999 FEW020 BKN050
TEMPO 1821 35025G38KT
BECMG 0609 05016KT
日本時間9日03-15時:350度から23ノットの風
但し、03-06時:一時、350度から25ノット、突風38ノット
15-18時:風が変化
18-21時:050度から16ノットの風


那覇空港
TAF ROAH 080841Z 081812 18018KT 8000 -SHRA FEW010 SCT025 BKN040
TEMPO 1803 4000 SHRA FEW008 BKN020 SCT025CB
日本時間9日03-21時:180度から18ノットの風

但し、03-12時:一時、

マウイのカフルイ空港
PHOG 081142Z 081212 04010KT P6SM FEW050
FM1900 08010KT P6SM SCT030 SCT050
FM0600 VRB06KT P6SM FEW050
ハワイ時間8日02-10時:040度から10ノットの風
09-20時:080度から10ノットの風
20時-9日02時:風向不定6ノットの風


サイパン空港
PGSN 081120Z 081212 06011KT P6SM VCSH SCT025 SCT040
マリアナ時間8日22時-9日22時:060度から11ノットの風

コメント
この記事をはてなブックマークに追加